Time;durP1;ratioP1;P1;durP2;ratioP2;P2;SDS_P1;SDS_P2;PMS_P1;PMS_P2;Temp;Humidity;BMP_temperature;BMP_pressure;BME280_temperature;BME280_humidity;BME280_pressure;Samples;Min_cycle;Max_cycle;Signal;HPM_P1;HPM_P2
2022/03/28 00:01:33;;;;;;;24.95;12.52;;;10.30;99.90;;;;;;5050945;28;20636;-80
2022/03/28 00:03:59;;;;;;;25.25;11.95;;;10.20;99.90;;;;;;5052258;28;20176;-80
2022/03/28 00:06:25;;;;;;;28.17;13.35;;;10.20;99.90;;;;;;5053632;28;20167;-80
2022/03/28 00:08:51;;;;;;;22.77;13.18;;;10.10;99.90;;;;;;5056088;28;20174;-79
2022/03/28 00:11:17;;;;;;;23.63;12.90;;;10.30;99.90;;;;;;5056134;28;20189;-80
2022/03/28 00:13:43;;;;;;;27.95;13.68;;;10.20;99.90;;;;;;5054673;28;20202;-79
2022/03/28 00:16:09;;;;;;;32.42;13.20;;;10.30;99.90;;;;;;5054610;28;20155;-79
2022/03/28 00:18:35;;;;;;;25.33;12.15;;;10.30;99.90;;;;;;5055268;28;20249;-80
2022/03/28 00:21:01;;;;;;;29.67;12.27;;;10.10;99.90;;;;;;5055762;28;20167;-79
2022/03/28 00:23:26;;;;;;;19.67;11.80;;;10.00;99.90;;;;;;5054631;28;20217;-79
2022/03/28 00:25:52;;;;;;;24.02;14.65;;;9.90;99.90;;;;;;5053937;28;20178;-79
2022/03/28 00:28:18;;;;;;;33.88;13.82;;;10.10;99.90;;;;;;5055383;28;20211;-79
2022/03/28 00:30:44;;;;;;;25.35;13.80;;;10.00;99.90;;;;;;5055566;28;20213;-79
2022/03/28 00:33:10;;;;;;;30.00;14.77;;;10.00;99.90;;;;;;5053944;28;20214;-81
2022/03/28 00:35:35;;;;;;;26.08;12.50;;;9.80;99.90;;;;;;5055600;28;20170;-82
2022/03/28 00:38:03;;;;;;;67.30;15.70;;;9.80;99.90;;;;;;5054310;28;20187;-78
2022/03/28 00:40:31;;;;;;;38.63;14.20;;;9.90;99.90;;;;;;5054129;28;20171;-79
2022/03/28 00:42:58;;;;;;;23.38;14.07;;;10.10;99.90;;;;;;5055180;28;20171;-80
2022/03/28 00:45:24;;;;;;;22.30;13.00;;;10.00;99.90;;;;;;5054128;28;20628;-80
2022/03/28 00:47:50;;;;;;;24.15;14.05;;;9.90;99.90;;;;;;5054092;28;20211;-80
2022/03/28 00:50:16;;;;;;;22.92;14.18;;;9.80;99.90;;;;;;5055125;28;20167;-78
2022/03/28 00:52:41;;;;;;;19.70;12.88;;;9.80;99.90;;;;;;5055618;28;20254;-79
2022/03/28 00:55:08;;;;;;;36.33;14.13;;;9.80;99.90;;;;;;5055040;28;20167;-78
2022/03/28 00:57:34;;;;;;;88.47;16.60;;;9.80;99.90;;;;;;5053598;28;20185;-80
2022/03/28 01:00:04;;;;;;;55.22;15.77;;;9.60;99.90;;;;;;5055116;28;20254;-79
2022/03/28 01:02:30;;;;;;;34.92;14.43;;;9.60;99.90;;;;;;5053681;28;20199;-77
2022/03/28 01:04:56;;;;;;;38.05;14.88;;;9.90;99.90;;;;;;5053652;28;20575;-78
2022/03/28 01:07:22;;;;;;;42.70;15.98;;;10.10;99.90;;;;;;5053317;28;20574;-78
2022/03/28 01:09:47;;;;;;;25.25;13.63;;;10.00;99.90;;;;;;5054943;28;20160;-78
2022/03/28 01:12:13;;;;;;;30.50;14.27;;;10.00;99.90;;;;;;5054856;28;20698;-77
2022/03/28 01:14:41;;;;;;;30.08;13.32;;;9.90;99.90;;;;;;5054550;28;20166;-81
2022/03/28 01:19:52;;;;;;;28.63;14.82;;;9.60;99.90;;;;;;5054464;28;20194;-80
2022/03/28 01:22:17;;;;;;;26.65;13.68;;;9.60;99.90;;;;;;5054528;28;20621;-81
2022/03/28 01:24:44;;;;;;;27.17;13.23;;;9.50;99.90;;;;;;5054683;28;20174;-80
2022/03/28 01:27:10;;;;;;;27.10;14.55;;;9.50;99.90;;;;;;5054730;28;20218;-81
2022/03/28 01:29:35;;;;;;;28.33;14.40;;;9.50;99.90;;;;;;5055820;28;20657;-82
2022/03/28 01:32:02;;;;;;;25.50;13.38;;;9.50;99.90;;;;;;5054321;28;20217;-81
2022/03/28 01:34:28;;;;;;;27.25;14.82;;;9.50;99.90;;;;;;5053710;28;20174;-80
2022/03/28 01:36:53;;;;;;;26.40;13.52;;;9.50;99.90;;;;;;5054963;28;20187;-81
2022/03/28 01:39:19;;;;;;;35.75;16.10;;;9.50;99.90;;;;;;5054192;28;20177;-79
2022/03/28 01:41:46;;;;;;;28.77;15.13;;;9.40;99.90;;;;;;5054009;28;20167;-79
2022/03/28 01:44:12;;;;;;;26.20;15.10;;;9.50;99.90;;;;;;5054024;28;20190;-79
2022/03/28 01:46:44;;;;;;;35.20;14.82;;;9.80;99.90;;;;;;5052850;28;20167;-79
2022/03/28 01:49:11;;;;;;;24.02;12.75;;;9.70;99.90;;;;;;5052539;28;20171;-79
2022/03/28 01:51:38;;;;;;;26.90;14.15;;;9.60;99.90;;;;;;5052917;28;20262;-79
2022/03/28 01:54:04;;;;;;;28.20;13.55;;;9.70;99.90;;;;;;5054183;28;20175;-80
2022/03/28 01:56:29;;;;;;;20.42;13.43;;;9.40;99.90;;;;;;5054283;28;20221;-79
2022/03/28 01:58:55;;;;;;;21.83;12.95;;;9.30;99.90;;;;;;5053818;28;20172;-79
2022/03/28 02:01:21;;;;;;;27.98;13.88;;;9.50;99.90;;;;;;5052634;28;20258;-78
2022/03/28 02:03:46;;;;;;;34.15;14.02;;;9.40;99.90;;;;;;5052196;28;20652;-79
2022/03/28 02:06:12;;;;;;;23.13;12.80;;;9.20;99.90;;;;;;5052425;28;20171;-80
2022/03/28 02:08:38;;;;;;;27.23;12.43;;;9.20;99.90;;;;;;5053515;28;20234;-79
2022/03/28 02:11:03;;;;;;;29.13;14.48;;;9.30;99.90;;;;;;5053638;28;20167;-79
2022/03/28 02:13:29;;;;;;;23.67;13.30;;;9.40;99.90;;;;;;5052103;28;20171;-80
2022/03/28 02:15:55;;;;;;;24.70;13.90;;;9.40;99.90;;;;;;5053443;28;20156;-79
2022/03/28 02:18:20;;;;;;;19.58;12.45;;;9.30;99.90;;;;;;5053422;28;20274;-79
2022/03/28 02:20:46;;;;;;;21.95;13.13;;;9.20;99.90;;;;;;5053657;28;20533;-80
2022/03/28 02:23:12;;;;;;;22.02;12.95;;;9.20;99.90;;;;;;5052012;28;20228;-79
2022/03/28 02:25:39;;;;;;;24.92;13.52;;;9.10;99.90;;;;;;5053245;28;20171;-80
2022/03/28 02:28:05;;;;;;;22.65;13.57;;;8.80;99.90;;;;;;5052966;28;20207;-81
2022/03/28 02:30:31;;;;;;;20.70;12.95;;;8.70;99.90;;;;;;5053282;28;20186;-80
2022/03/28 02:32:58;;;;;;;22.65;13.77;;;8.90;99.90;;;;;;5053842;28;20175;-83
2022/03/28 02:35:24;;;;;;;30.48;13.38;;;8.80;99.90;;;;;;5053563;28;20650;-82
2022/03/28 02:37:50;;;;;;;26.17;12.05;;;8.80;99.90;;;;;;5053670;28;20274;-80
2022/03/28 02:40:16;;;;;;;33.42;14.63;;;8.90;99.90;;;;;;5053237;28;20167;-82
2022/03/28 02:42:42;;;;;;;34.67;15.23;;;8.80;99.90;;;;;;5053488;28;20579;-82
2022/03/28 02:45:09;;;;;;;29.85;13.52;;;8.90;99.90;;;;;;5053391;28;20171;-81
2022/03/28 02:47:34;;;;;;;32.22;13.40;;;9.00;99.90;;;;;;5052975;28;20217;-82
2022/03/28 02:50:00;;;;;;;25.05;14.50;;;9.10;99.90;;;;;;5053390;28;20152;-85
2022/03/28 02:52:26;;;;;;;23.67;12.95;;;9.20;99.90;;;;;;5052353;28;20179;-83
2022/03/28 02:54:52;;;;;;;26.80;13.85;;;9.20;99.90;;;;;;5053413;28;20571;-81
2022/03/28 02:57:17;;;;;;;24.60;13.32;;;9.20;99.90;;;;;;5052091;28;20226;-80
2022/03/28 02:59:43;;;;;;;23.83;13.68;;;9.20;99.90;;;;;;5053055;28;20242;-80
2022/03/28 03:02:09;;;;;;;25.40;13.57;;;9.10;99.90;;;;;;5053062;28;20251;-81
2022/03/28 03:04:34;;;;;;;24.63;13.40;;;9.00;99.90;;;;;;5051780;28;20662;-81
2022/03/28 03:07:00;;;;;;;26.38;14.02;;;8.90;99.90;;;;;;5051557;28;20203;-80
2022/03/28 03:09:26;;;;;;;24.45;13.10;;;8.90;99.90;;;;;;5053157;28;20205;-82
2022/03/28 03:11:51;;;;;;;26.58;14.70;;;8.70;99.90;;;;;;5052769;28;20159;-79
2022/03/28 03:14:17;;;;;;;23.38;13.10;;;8.60;99.90;;;;;;5052927;28;20309;-82
2022/03/28 03:16:43;;;;;;;20.20;12.95;;;8.60;99.90;;;;;;5052888;28;20190;-81
2022/03/28 03:19:09;;;;;;;22.95;12.88;;;8.80;99.90;;;;;;5052802;28;20184;-83
2022/03/28 03:21:35;;;;;;;23.55;13.98;;;8.80;99.90;;;;;;5051722;28;20538;-82
2022/03/28 03:24:01;;;;;;;23.83;13.38;;;8.80;99.90;;;;;;5052577;28;20562;-81
2022/03/28 03:26:27;;;;;;;18.77;12.60;;;8.90;99.90;;;;;;5051414;28;20241;-83
2022/03/28 03:28:58;;;;;;;22.92;13.20;;;8.80;99.90;;;;;;5051696;28;20170;-83
2022/03/28 03:31:24;;;;;;;21.67;12.98;;;8.80;99.90;;;;;;5051148;28;20183;-79
2022/03/28 03:33:49;;;;;;;22.35;13.85;;;8.80;99.90;;;;;;5052543;28;20250;-85
2022/03/28 03:36:15;;;;;;;25.77;14.15;;;8.70;99.90;;;;;;5052978;28;20214;-81
2022/03/28 03:38:40;;;;;;;26.15;13.98;;;8.90;99.90;;;;;;5052682;28;20209;-87
2022/03/28 03:41:07;;;;;;;23.60;14.95;;;8.80;99.90;;;;;;5052193;28;20191;-83
2022/03/28 03:43:33;;;;;;;22.95;13.77;;;8.80;99.90;;;;;;5052570;28;20751;-82
2022/03/28 03:45:58;;;;;;;21.95;13.20;;;8.70;99.90;;;;;;5052636;28;20194;-80
2022/03/28 03:48:26;;;;;;;31.40;13.38;;;8.50;99.90;;;;;;5052472;28;20253;-81
2022/03/28 03:50:51;;;;;;;19.92;13.15;;;8.50;99.90;;;;;;5051521;28;20171;-81
2022/03/28 03:53:19;;;;;;;18.02;12.40;;;8.50;99.90;;;;;;5053943;28;20224;-85
2022/03/28 03:55:45;;;;;;;34.67;14.38;;;8.60;99.90;;;;;;5053066;28;20151;-84
2022/03/28 03:58:11;;;;;;;23.25;12.73;;;8.60;99.90;;;;;;5051540;28;20198;-80
2022/03/28 04:00:37;;;;;;;18.15;12.23;;;8.60;99.90;;;;;;5052805;28;20171;-81
2022/03/28 04:03:03;;;;;;;22.35;12.60;;;8.50;99.90;;;;;;5051636;28;20175;-85
2022/03/28 04:05:30;;;;;;;24.30;13.70;;;8.40;99.90;;;;;;5052615;28;20171;-80
2022/03/28 04:07:55;;;;;;;20.65;12.85;;;8.40;99.90;;;;;;5052165;28;20202;-81
2022/03/28 04:10:22;;;;;;;21.73;12.85;;;8.60;99.90;;;;;;5052147;28;20185;-81
2022/03/28 04:12:48;;;;;;;24.20;12.50;;;8.30;99.90;;;;;;5050853;28;20171;-80
2022/03/28 04:15:14;;;;;;;24.88;12.30;;;8.30;99.90;;;;;;5051942;28;20689;-81
2022/03/28 04:17:43;;;;;;;29.58;13.88;;;8.30;99.90;;;;;;5050400;28;20195;-80
2022/03/28 04:20:12;;;;;;;37.13;14.25;;;8.40;99.90;;;;;;5052342;28;20342;-79
2022/03/28 04:22:39;;;;;;;25.15;12.38;;;8.50;99.90;;;;;;5051144;28;20254;-83
2022/03/28 04:25:06;;;;;;;29.45;12.30;;;8.50;99.90;;;;;;5052113;28;20177;-80
2022/03/28 04:27:33;;;;;;;52.90;13.13;;;8.50;99.90;;;;;;5050732;28;20207;-84
2022/03/28 04:29:58;;;;;;;21.25;12.85;;;8.30;99.90;;;;;;5051836;28;20643;-82
2022/03/28 04:32:24;;;;;;;25.20;12.35;;;8.20;99.90;;;;;;5051249;28;20274;-83
2022/03/28 04:34:49;;;;;;;38.28;13.15;;;8.10;99.90;;;;;;5052319;28;20639;-81
2022/03/28 04:37:15;;;;;;;30.15;13.35;;;8.20;99.90;;;;;;5052539;28;20187;-80
2022/03/28 04:39:41;;;;;;;49.70;13.35;;;8.30;99.90;;;;;;5050981;28;20178;-79
2022/03/28 04:42:07;;;;;;;31.88;14.52;;;8.30;99.90;;;;;;5052196;28;20309;-82
2022/03/28 04:44:33;;;;;;;31.88;12.25;;;8.20;99.90;;;;;;5050646;28;20551;-80
2022/03/28 04:46:59;;;;;;;19.67;12.15;;;8.10;99.90;;;;;;5052066;28;20192;-81
2022/03/28 04:49:24;;;;;;;25.05;12.93;;;8.00;99.90;;;;;;5052141;28;20638;-83
2022/03/28 04:51:50;;;;;;;27.10;13.95;;;8.20;99.90;;;;;;5051899;28;20213;-80
2022/03/28 04:54:15;;;;;;;26.33;13.10;;;8.40;99.90;;;;;;5054599;28;20175;-82
2022/03/28 04:56:43;;;;;;;20.63;12.50;;;8.50;99.90;;;;;;5054985;28;20191;-83
2022/03/28 04:59:09;;;;;;;26.17;12.07;;;8.30;99.90;;;;;;5056016;28;20171;-83
2022/03/28 05:01:34;;;;;;;27.80;11.98;;;8.20;99.90;;;;;;5054234;28;20521;-84
2022/03/28 05:04:00;;;;;;;19.80;12.48;;;8.30;99.90;;;;;;5055710;28;20171;-84
2022/03/28 05:06:26;;;;;;;26.13;12.60;;;8.30;99.90;;;;;;5055361;28;20170;-83
2022/03/28 05:08:51;;;;;;;22.88;13.00;;;8.20;99.90;;;;;;5054532;28;20199;-82
2022/03/28 05:11:22;;;;;;;22.15;12.50;;;8.30;99.90;;;;;;5055472;28;20159;-80
2022/03/28 05:13:51;;;;;;;23.38;12.48;;;8.00;99.90;;;;;;5055290;28;20174;-87
2022/03/28 05:16:17;;;;;;;21.17;12.57;;;8.00;99.90;;;;;;5055798;28;20565;-81
2022/03/28 05:18:43;;;;;;;22.88;12.45;;;8.10;99.90;;;;;;5055241;28;20187;-81
2022/03/28 05:21:09;;;;;;;27.40;13.55;;;8.00;99.90;;;;;;5054102;28;20178;-80
2022/03/28 05:23:35;;;;;;;25.80;12.95;;;7.90;99.90;;;;;;5055233;28;20163;-81
2022/03/28 05:26:02;;;;;;;24.27;13.38;;;7.90;99.90;;;;;;5055164;28;20250;-81
2022/03/28 05:28:28;;;;;;;16.20;11.68;;;8.00;99.90;;;;;;5056166;28;20242;-81
2022/03/28 05:30:57;;;;;;;29.67;13.15;;;7.90;99.90;;;;;;5055351;28;20718;-83
2022/03/28 05:33:23;;;;;;;34.47;14.52;;;8.00;99.90;;;;;;5055612;28;20167;-82
2022/03/28 05:35:49;;;;;;;33.13;13.45;;;8.00;99.90;;;;;;5054513;28;20163;-84
2022/03/28 05:38:15;;;;;;;17.08;11.95;;;8.00;99.90;;;;;;5054160;28;20179;-80
2022/03/28 05:40:41;;;;;;;29.33;12.93;;;8.00;99.90;;;;;;5055008;28;20262;-79
2022/03/28 05:43:07;;;;;;;15.10;11.80;;;8.10;99.90;;;;;;5054048;28;20171;-80
2022/03/28 05:45:34;;;;;;;19.52;12.07;;;8.00;99.90;;;;;;5054158;28;20654;-79
2022/03/28 05:48:00;;;;;;;29.67;13.13;;;8.10;99.90;;;;;;5053922;28;20214;-79
2022/03/28 05:50:26;;;;;;;18.00;12.25;;;8.10;99.90;;;;;;5053608;28;20159;-79
2022/03/28 05:52:51;;;;;;;28.38;11.60;;;8.10;99.90;;;;;;5053993;28;20167;-78
2022/03/28 05:55:17;;;;;;;15.93;11.93;;;8.20;99.90;;;;;;5054207;28;20528;-81
2022/03/28 05:57:42;;;;;;;32.25;13.40;;;8.00;99.90;;;;;;5053939;28;20183;-78
2022/03/28 06:00:09;;;;;;;46.05;12.93;;;7.90;99.90;;;;;;5053223;28;20685;-79
2022/03/28 06:02:36;;;;;;;29.58;12.80;;;8.10;99.90;;;;;;5054305;28;20655;-79
2022/03/28 06:05:02;;;;;;;44.33;14.23;;;8.30;99.90;;;;;;5053009;28;20178;-82
2022/03/28 06:07:28;;;;;;;19.50;11.63;;;8.20;99.90;;;;;;5054017;28;20208;-79
2022/03/28 06:09:54;;;;;;;31.13;14.10;;;8.10;99.90;;;;;;5054661;28;20182;-79
2022/03/28 06:12:19;;;;;;;39.78;14.60;;;8.10;99.90;;;;;;5054204;28;20174;-80
2022/03/28 06:14:45;;;;;;;52.33;13.88;;;8.20;99.90;;;;;;5053745;28;20171;-82
2022/03/28 06:17:18;;;;;;;36.53;14.15;;;8.30;99.90;;;;;;5053879;28;20187;-82
2022/03/28 06:19:44;;;;;;;34.83;13.63;;;8.50;99.90;;;;;;5053830;28;20232;-86
2022/03/28 06:22:09;;;;;;;40.10;13.20;;;8.50;99.90;;;;;;5053744;28;20167;-83
2022/03/28 06:24:35;;;;;;;43.65;13.98;;;8.60;99.90;;;;;;5053992;28;20174;-82
2022/03/28 06:27:01;;;;;;;36.50;14.10;;;8.60;99.90;;;;;;5053399;28;20205;-82
2022/03/28 06:29:26;;;;;;;31.23;13.95;;;8.70;99.90;;;;;;5051975;28;20171;-81
2022/03/28 06:31:52;;;;;;;38.92;13.85;;;8.80;99.90;;;;;;5053408;28;20531;-79
2022/03/28 06:34:17;;;;;;;32.85;13.95;;;9.00;99.90;;;;;;5052595;28;20226;-81
2022/03/28 06:36:44;;;;;;;30.17;14.25;;;8.90;99.90;;;;;;5054291;28;20218;-82
2022/03/28 06:39:10;;;;;;;28.38;14.05;;;9.00;99.90;;;;;;5053153;28;20198;-81
2022/03/28 06:41:35;;;;;;;23.80;14.30;;;8.90;99.90;;;;;;5051961;28;20171;-86
2022/03/28 06:44:01;;;;;;;52.13;15.52;;;9.10;99.90;;;;;;5053328;28;20187;-82
2022/03/28 06:46:27;;;;;;;43.35;14.60;;;9.30;99.90;;;;;;5053809;28;20194;-85
2022/03/28 06:48:54;;;;;;;29.58;14.73;;;9.40;99.90;;;;;;5052145;28;20308;-81
2022/03/28 06:51:20;;;;;;;44.63;14.57;;;9.50;99.90;;;;;;5048216;28;20215;-82
2022/03/28 06:53:48;;;;;;;32.58;15.40;;;9.40;99.90;;;;;;5036812;28;20574;-79
2022/03/28 06:56:14;;;;;;;42.17;15.63;;;9.60;99.90;;;;;;5032690;28;20246;-80
2022/03/28 06:58:39;;;;;;;46.60;16.55;;;9.70;99.90;;;;;;5031039;28;20338;-81
2022/03/28 07:01:05;;;;;;;41.60;14.70;;;9.70;99.90;;;;;;5030987;28;20197;-78
2022/03/28 07:03:32;;;;;;;33.53;14.52;;;9.80;99.90;;;;;;5032278;28;20179;-78
2022/03/28 07:05:58;;;;;;;44.97;14.63;;;9.90;99.90;;;;;;5032542;28;20160;-78
2022/03/28 07:08:23;;;;;;;36.03;14.57;;;10.00;99.90;;;;;;5033886;28;20218;-85
2022/03/28 07:10:49;;;;;;;40.20;15.23;;;10.20;99.90;;;;;;5037416;28;20175;-82
2022/03/28 07:13:15;;;;;;;60.70;15.05;;;10.40;99.90;;;;;;5034271;28;20285;-77
2022/03/28 07:15:40;;;;;;;30.17;14.82;;;10.50;99.90;;;;;;5031148;28;20168;-85
2022/03/28 07:18:08;;;;;;;38.92;14.73;;;10.50;99.90;;;;;;5035271;28;20227;-80
2022/03/28 07:20:34;;;;;;;29.75;13.07;;;10.40;99.90;;;;;;5029466;28;20271;-81
2022/03/28 07:23:01;;;;;;;39.08;14.88;;;10.50;99.90;;;;;;5032259;28;20207;-80
2022/03/28 07:25:28;;;;;;;24.65;14.20;;;10.60;99.90;;;;;;5030854;28;20179;-80
2022/03/28 07:27:54;;;;;;;34.35;15.38;;;10.90;99.90;;;;;;5031518;28;20212;-82
2022/03/28 07:30:21;;;;;;;46.97;16.77;;;10.70;99.90;;;;;;5051623;28;20217;-81
2022/03/28 07:32:47;;;;;;;42.38;15.23;;;10.80;99.90;;;;;;5051773;28;20168;-79
2022/03/28 07:35:14;;;;;;;49.63;15.88;;;10.80;99.90;;;;;;5051543;28;20171;-82
2022/03/28 07:37:41;;;;;;;27.25;16.75;;;10.80;99.90;;;;;;5051795;28;20194;-81
2022/03/28 07:40:08;;;;;;;44.88;16.88;;;10.90;99.90;;;;;;5051623;28;20348;-81
2022/03/28 07:42:37;;;;;;;25.25;14.40;;;11.20;99.90;;;;;;5049324;28;20171;-78
2022/03/28 07:45:05;;;;;;;34.33;15.77;;;11.20;99.90;;;;;;5051653;28;20182;-78
2022/03/28 07:47:31;;;;;;;34.05;15.73;;;11.20;99.90;;;;;;5051149;28;20560;-79
2022/03/28 07:49:58;;;;;;;37.05;17.55;;;11.20;99.90;;;;;;5048921;28;20835;-82
2022/03/28 07:52:24;;;;;;;32.33;16.48;;;11.40;99.90;;;;;;5038130;28;20659;-80
2022/03/28 07:54:51;;;;;;;37.28;16.75;;;11.50;99.90;;;;;;5043007;28;20182;-82
2022/03/28 07:57:18;;;;;;;29.98;15.85;;;11.60;99.90;;;;;;5049471;28;20723;-82
2022/03/28 07:59:48;;;;;;;42.22;18.05;;;11.60;99.90;;;;;;5052019;28;20261;-82
2022/03/28 08:02:15;;;;;;;30.60;15.32;;;11.60;99.90;;;;;;5034962;28;20175;-81
2022/03/28 08:04:43;;;;;;;33.03;17.48;;;11.90;99.90;;;;;;5034301;28;20178;-83
2022/03/28 08:07:10;;;;;;;40.75;16.55;;;12.00;99.90;;;;;;5030754;28;20195;-79
2022/03/28 08:09:37;;;;;;;36.70;16.77;;;12.20;99.90;;;;;;5031697;28;20195;-82
2022/03/28 08:12:04;;;;;;;38.20;16.15;;;12.40;99.90;;;;;;5031405;28;20250;-82
2022/03/28 08:14:29;;;;;;;37.38;15.55;;;12.60;99.90;;;;;;5031792;28;20256;-83
2022/03/28 08:16:56;;;;;;;29.85;17.10;;;12.60;99.90;;;;;;5032221;28;20234;-81
2022/03/28 08:19:22;;;;;;;44.75;16.98;;;12.60;99.90;;;;;;5032472;28;20164;-83
2022/03/28 08:21:48;;;;;;;40.08;16.00;;;12.70;99.90;;;;;;5031982;28;20187;-81
2022/03/28 08:24:14;;;;;;;28.20;15.38;;;12.90;99.90;;;;;;5032166;28;20168;-81
2022/03/28 08:26:39;;;;;;;37.60;16.75;;;12.90;99.90;;;;;;5030703;28;20262;-81
2022/03/28 08:29:05;;;;;;;33.47;16.15;;;13.00;99.90;;;;;;5036026;28;20176;-84
2022/03/28 08:31:31;;;;;;;35.53;17.00;;;13.20;99.90;;;;;;5035370;28;20279;-84
2022/03/28 08:33:57;;;;;;;32.67;17.63;;;13.40;99.90;;;;;;5049309;28;20976;-82
2022/03/28 08:36:23;;;;;;;34.17;16.92;;;13.40;99.90;;;;;;5035327;28;20172;-81
2022/03/28 08:38:49;;;;;;;40.10;18.33;;;13.30;99.90;;;;;;5035683;28;20265;-84
2022/03/28 08:41:16;;;;;;;34.53;18.80;;;13.40;99.90;;;;;;5036129;28;20416;-82
2022/03/28 08:43:42;;;;;;;49.05;17.48;;;13.40;99.90;;;;;;5036382;28;20168;-85
2022/03/28 08:46:09;;;;;;;36.75;16.92;;;13.30;99.90;;;;;;5043715;28;20171;-81
2022/03/28 08:48:40;;;;;;;44.35;17.95;;;13.40;99.90;;;;;;5053082;28;20218;-83
2022/03/28 08:51:10;;;;;;;38.97;17.92;;;13.60;99.90;;;;;;5055999;28;20170;-83
2022/03/28 08:53:37;;;;;;;27.80;15.38;;;13.80;99.90;;;;;;5055139;28;20167;-78
2022/03/28 08:56:03;;;;;;;31.42;16.60;;;13.80;99.90;;;;;;5055873;28;20175;-83
2022/03/28 08:58:29;;;;;;;37.85;17.08;;;14.00;99.90;;;;;;5052292;28;20301;-84
2022/03/28 09:00:55;;;;;;;35.08;17.23;;;14.10;99.90;;;;;;5036956;28;20204;-83
2022/03/28 09:03:38;;;;;;;27.67;15.43;;;14.10;99.90;;;;;;5049390;28;20174;-77
2022/03/28 09:06:38;;;;;;;31.80;16.40;;;14.30;99.90;;;;;;5056122;28;20178;-82
2022/03/28 09:09:13;;;;;;;37.47;16.83;;;14.50;99.90;;;;;;5047861;28;20176;-80
2022/03/28 09:11:42;;;;;;;36.47;17.40;;;14.70;99.90;;;;;;5036376;28;20198;-82
2022/03/28 09:14:22;;;;;;;36.72;17.25;;;14.50;99.90;;;;;;5036608;28;20236;-79
2022/03/28 09:17:09;;;;;;;26.85;16.98;;;14.80;99.90;;;;;;5037625;28;20175;-87
2022/03/28 09:19:44;;;;;;;28.42;16.83;;;14.90;99.90;;;;;;5037229;28;20168;-81
2022/03/28 09:22:16;;;;;;;37.13;17.15;;;15.10;99.90;;;;;;5036089;28;20168;-85
2022/03/28 09:24:42;;;;;;;29.00;16.20;;;14.90;99.90;;;;;;5035810;28;20164;-79
2022/03/28 09:27:17;;;;;;;40.88;17.10;;;14.80;99.90;;;;;;5034490;28;20223;-81
2022/03/28 09:29:57;;;;;;;28.17;16.10;;;14.90;99.90;;;;;;5034391;28;20667;-83
2022/03/28 09:32:29;;;;;;;36.70;17.20;;;15.00;99.90;;;;;;5034766;28;20276;-85
2022/03/28 09:35:26;;;;;;;29.10;16.35;;;15.20;99.90;;;;;;5035237;28;20241;-84
2022/03/28 09:37:58;;;;;;;24.80;14.88;;;15.30;99.90;;;;;;5032945;28;20549;-81
2022/03/28 09:40:42;;;;;;;33.83;16.73;;;15.30;99.90;;;;;;5033487;28;20175;-79
2022/03/28 09:43:20;;;;;;;28.58;16.58;;;15.20;99.90;;;;;;5034468;28;20246;-83
2022/03/28 09:45:50;;;;;;;21.30;14.88;;;15.50;99.90;;;;;;5034409;28;20167;-86
2022/03/28 09:48:17;;;;;;;27.50;16.20;;;15.50;99.90;;;;;;5033972;28;20207;-82
2022/03/28 09:50:46;;;;;;;24.25;15.52;;;15.50;99.90;;;;;;5033945;28;20156;-83
2022/03/28 09:53:16;;;;;;;37.75;17.02;;;15.70;99.90;;;;;;5032605;28;20172;-80
2022/03/28 09:55:57;;;;;;;24.25;16.80;;;15.60;99.90;;;;;;5033365;28;20172;-85
2022/03/28 09:58:36;;;;;;;38.28;16.45;;;15.40;99.90;;;;;;5034066;28;20184;-81
2022/03/28 10:01:12;;;;;;;27.67;16.75;;;15.30;99.90;;;;;;5033993;28;20179;-82
2022/03/28 10:03:38;;;;;;;27.75;16.80;;;15.20;99.90;;;;;;5033884;28;20216;-81
2022/03/28 10:06:06;;;;;;;28.98;16.15;;;15.50;99.90;;;;;;5034446;28;20199;-83
2022/03/28 10:08:35;;;;;;;35.58;18.00;;;15.60;99.90;;;;;;5042440;28;20247;-84
2022/03/28 10:11:02;;;;;;;35.70;16.63;;;15.80;99.90;;;;;;5053280;28;20173;-79
2022/03/28 10:13:29;;;;;;;29.42;17.35;;;15.70;99.90;;;;;;5051800;28;20163;-79
2022/03/28 10:15:58;;;;;;;24.23;15.48;;;15.70;99.90;;;;;;5052084;28;20171;-79
2022/03/28 10:18:32;;;;;;;28.55;14.75;;;15.60;99.90;;;;;;5041783;28;20203;-78
2022/03/28 10:21:06;;;;;;;21.17;14.63;;;15.70;99.90;;;;;;5033298;28;20174;-78
2022/03/28 10:24:18;;;;;;;29.88;14.48;;;15.80;99.90;;;;;;5033138;28;20188;-78
2022/03/28 10:26:47;;;;;;;22.10;14.55;;;16.00;99.90;;;;;;5027519;28;20222;-81
2022/03/28 10:29:17;;;;;;;24.63;14.43;;;16.00;99.90;;;;;;5032886;28;20204;-80
2022/03/28 10:31:54;;;;;;;21.50;13.45;;;16.00;99.90;;;;;;5032370;28;20696;-79
2022/03/28 10:34:49;;;;;;;20.50;13.43;;;16.00;99.90;;;;;;5032624;28;20250;-85
2022/03/28 10:37:47;;;;;;;18.02;13.07;;;16.00;99.90;;;;;;5033255;28;20601;-85
2022/03/28 10:40:22;;;;;;;20.48;12.52;;;16.20;99.90;;;;;;5032764;28;20168;-80
2022/03/28 10:43:00;;;;;;;26.88;13.25;;;16.10;99.90;;;;;;5032844;28;20190;-79
2022/03/28 10:45:37;;;;;;;27.83;12.25;;;16.30;99.90;;;;;;5032412;28;20682;-82
2022/03/28 10:48:05;;;;;;;14.27;10.75;;;16.40;99.90;;;;;;5032869;28;20299;-83
2022/03/28 10:50:43;;;;;;;20.58;12.38;;;16.40;99.90;;;;;;5032082;28;20603;-85
2022/03/28 10:53:29;;;;;;;24.38;15.80;;;16.40;99.90;;;;;;5032836;28;20251;-81
2022/03/28 10:56:01;;;;;;;17.50;10.98;;;16.50;99.90;;;;;;5031549;28;20184;-80
2022/03/28 10:58:30;;;;;;;17.90;11.63;;;16.40;99.90;;;;;;5032990;28;20188;-80
2022/03/28 11:01:15;;;;;;;24.25;13.15;;;16.20;99.90;;;;;;5031190;28;20171;-77
2022/03/28 11:04:00;;;;;;;26.50;13.23;;;16.30;99.90;;;;;;5032008;28;20175;-77
2022/03/28 11:06:45;;;;;;;25.02;13.25;;;16.20;99.90;;;;;;5031645;28;20172;-78
2022/03/28 11:09:11;;;;;;;26.40;12.70;;;16.30;99.90;;;;;;5031659;28;20269;-78
2022/03/28 11:11:54;;;;;;;30.95;14.75;;;16.40;99.90;;;;;;5032110;28;20160;-84
2022/03/28 11:14:37;;;;;;;21.30;12.05;;;16.50;99.90;;;;;;5031801;28;20534;-81
2022/03/28 11:17:23;;;;;;;25.00;13.75;;;16.50;99.90;;;;;;5031951;28;20290;-79
2022/03/28 11:20:18;;;;;;;26.23;13.73;;;16.40;99.90;;;;;;5031509;28;20207;-81
2022/03/28 11:22:44;;;;;;;26.85;13.95;;;16.40;99.90;;;;;;5030908;28;20184;-78
2022/03/28 11:25:42;;;;;;;31.70;14.05;;;16.30;99.90;;;;;;5041978;28;20163;-81
2022/03/28 11:28:13;;;;;;;33.67;15.60;;;16.50;99.90;;;;;;5051607;28;20250;-78
2022/03/28 11:30:45;;;;;;;33.15;14.90;;;16.80;99.90;;;;;;5052059;28;20202;-80
2022/03/28 11:33:13;;;;;;;28.95;15.18;;;16.90;99.90;;;;;;5051639;28;20224;-79
2022/03/28 11:35:40;;;;;;;25.27;14.07;;;17.10;99.90;;;;;;5036175;28;20174;-83
2022/03/28 11:38:06;;;;;;;22.30;13.55;;;17.20;99.90;;;;;;5041690;28;20203;-89
2022/03/28 11:40:42;;;;;;;26.30;13.88;;;17.10;99.90;;;;;;5036345;28;20178;-79
2022/03/28 11:43:09;;;;;;;30.15;14.57;;;17.20;99.90;;;;;;5052911;28;20194;-85
2022/03/28 11:45:44;;;;;;;25.70;13.88;;;17.40;99.90;;;;;;5053483;28;20159;-78
2022/03/28 11:48:10;;;;;;;25.92;13.65;;;17.20;99.90;;;;;;5052377;28;20206;-85
2022/03/28 11:50:35;;;;;;;29.40;14.60;;;17.00;99.90;;;;;;5047511;28;20278;-84
2022/03/28 11:53:01;;;;;;;25.30;13.45;;;16.90;99.90;;;;;;5060980;28;20202;-84
2022/03/28 11:55:29;;;;;;;34.88;15.48;;;17.10;99.90;;;;;;5073648;28;20523;-86
2022/03/28 11:58:15;;;;;;;47.75;15.27;;;17.20;99.90;;;;;;5072886;28;20655;-86
2022/03/28 12:00:43;;;;;;;30.30;14.27;;;17.30;99.90;;;;;;5059552;28;20182;-86
2022/03/28 12:03:12;;;;;;;23.17;14.00;;;17.40;99.90;;;;;;5035133;28;20533;-84
2022/03/28 12:05:47;;;;;;;34.83;14.05;;;17.50;99.90;;;;;;5036828;28;20182;-80
2022/03/28 12:08:15;;;;;;;31.33;13.32;;;17.50;99.90;;;;;;5035426;28;20276;-83
2022/03/28 12:10:49;;;;;;;26.30;14.07;;;17.40;99.90;;;;;;5035723;28;20230;-81
2022/03/28 12:13:16;;;;;;;21.50;12.43;;;17.40;99.90;;;;;;5034673;28;20164;-81
2022/03/28 12:15:47;;;;;;;34.45;14.25;;;17.50;99.90;;;;;;5035998;28;20159;-80
2022/03/28 12:18:18;;;;;;;36.47;14.32;;;17.30;99.90;;;;;;5036640;28;20192;-81
2022/03/28 12:20:50;;;;;;;22.35;12.82;;;17.20;99.90;;;;;;5037503;28;20215;-81
2022/03/28 12:23:17;;;;;;;32.08;14.57;;;17.20;99.90;;;;;;5037427;28;20179;-84
2022/03/28 12:25:48;;;;;;;30.45;15.13;;;17.10;99.90;;;;;;5034567;28;20584;-82
2022/03/28 12:28:30;;;;;;;28.98;15.70;;;17.10;99.90;;;;;;5036626;28;20200;-81
2022/03/28 12:30:58;;;;;;;31.20;15.65;;;17.20;99.90;;;;;;5035379;28;20187;-83
2022/03/28 12:33:33;;;;;;;26.73;14.18;;;17.40;99.90;;;;;;5036077;28;20338;-84
2022/03/28 12:36:01;;;;;;;24.30;13.48;;;17.40;99.90;;;;;;5035855;28;20164;-83
2022/03/28 12:38:30;;;;;;;30.25;15.15;;;17.40;99.90;;;;;;5034897;28;20514;-86
2022/03/28 12:40:58;;;;;;;26.00;14.65;;;17.40;99.90;;;;;;5052200;28;20183;-80
2022/03/28 12:43:27;;;;;;;29.60;14.65;;;17.40;99.90;;;;;;5050877;28;20171;-79